Time;durP1;ratioP1;P1;durP2;ratioP2;P2;SDS_P1;SDS_P2;PMS_P1;PMS_P2;Temp;Humidity;BMP_temperature;BMP_pressure;BME280_temperature;BME280_humidity;BME280_pressure;Samples;Min_cycle;Max_cycle;Signal;HPM_P1;HPM_P2
2022/02/23 00:00:44;;;;;;;51.35;47.53;;;;;;;;;;6216808;23;20617;-84
2022/02/23 00:03:13;;;;;;;49.83;45.33;;;;;;;;;;6216634;23;20176;-84
2022/02/23 00:05:41;;;;;;;48.95;44.50;;;;;;;;;;6216730;23;20184;-85
2022/02/23 00:08:08;;;;;;;53.83;47.53;;;;;;;;;;6216297;23;20172;-86
2022/02/23 00:10:36;;;;;;;48.90;45.50;;;;;;;;;;6216562;23;20173;-85
2022/02/23 00:13:03;;;;;;;50.33;47.10;;;;;;;;;;6216712;23;20519;-85
2022/02/23 00:15:30;;;;;;;49.38;46.25;;;;;;;;;;6216510;23;20176;-85
2022/02/23 00:17:58;;;;;;;47.88;45.25;;;;;;;;;;6216027;23;20169;-86
2022/02/23 00:20:27;;;;;;;50.25;46.08;;;;;;;;;;6216423;23;20173;-86
2022/02/23 00:22:54;;;;;;;49.20;46.25;;;;;;;;;;6216151;23;20208;-85
2022/02/23 00:25:21;;;;;;;48.40;45.47;;;;;;;;;;6216387;23;20184;-85
2022/02/23 00:27:49;;;;;;;49.28;46.28;;;;;;;;;;6216380;23;20172;-86
2022/02/23 00:30:16;;;;;;;50.70;47.10;;;;;;;;;;6216475;23;20173;-86
2022/02/23 00:32:43;;;;;;;47.28;44.33;;;;;;;;;;6216376;23;20169;-85
2022/02/23 00:35:11;;;;;;;49.45;45.15;;;;;;;;;;6216640;23;20177;-86
2022/02/23 00:37:39;;;;;;;46.97;43.25;;;;;;;;;;6216872;23;20180;-86
2022/02/23 00:40:07;;;;;;;47.88;44.38;;;;;;;;;;6216245;23;20176;-86
2022/02/23 00:42:35;;;;;;;48.15;44.55;;;;;;;;;;6216177;23;20171;-86
2022/02/23 00:45:02;;;;;;;45.15;41.97;;;;;;;;;;6216185;23;20231;-86
2022/02/23 00:47:29;;;;;;;34.60;31.50;;;;;;;;;;6216625;23;20169;-86
2022/02/23 00:49:57;;;;;;;35.08;32.70;;;;;;;;;;6215980;23;20561;-86
2022/02/23 00:52:24;;;;;;;36.63;33.08;;;;;;;;;;6216802;23;20176;-86
2022/02/23 00:54:54;;;;;;;34.65;32.15;;;;;;;;;;6216429;23;20192;-86
2022/02/23 00:57:21;;;;;;;39.17;36.00;;;;;;;;;;6216312;23;20669;-84
2022/02/23 00:59:48;;;;;;;33.22;30.35;;;;;;;;;;6215693;23;20169;-86
2022/02/23 01:02:16;;;;;;;31.77;29.27;;;;;;;;;;6216040;23;20180;-86
2022/02/23 01:04:43;;;;;;;31.45;29.13;;;;;;;;;;6216019;23;20202;-85
2022/02/23 01:07:11;;;;;;;31.85;29.55;;;;;;;;;;6216653;23;20161;-86
2022/02/23 01:09:38;;;;;;;30.92;28.48;;;;;;;;;;6216363;23;20164;-86
2022/02/23 01:12:07;;;;;;;30.73;28.10;;;;;;;;;;6216071;23;20607;-86
2022/02/23 01:14:35;;;;;;;29.92;27.58;;;;;;;;;;6215904;23;20196;-86
2022/02/23 01:17:02;;;;;;;31.73;26.52;;;;;;;;;;6216419;23;20161;-86
2022/02/23 01:19:29;;;;;;;29.08;26.50;;;;;;;;;;6216415;23;20161;-86
2022/02/23 01:21:57;;;;;;;32.55;26.40;;;;;;;;;;6216141;23;20172;-86
2022/02/23 01:24:24;;;;;;;28.15;26.45;;;;;;;;;;6215840;23;20204;-86
2022/02/23 01:26:52;;;;;;;27.42;25.52;;;;;;;;;;6216231;23;20161;-86
2022/02/23 01:29:21;;;;;;;26.83;24.70;;;;;;;;;;6216281;23;20183;-85
2022/02/23 01:31:48;;;;;;;25.23;23.45;;;;;;;;;;6215948;23;20172;-86
2022/02/23 01:34:15;;;;;;;25.00;23.20;;;;;;;;;;6216228;23;20286;-86
2022/02/23 01:36:43;;;;;;;23.27;21.67;;;;;;;;;;6216072;23;20176;-86
2022/02/23 01:39:10;;;;;;;23.35;21.27;;;;;;;;;;6216278;23;20165;-87
2022/02/23 01:41:37;;;;;;;24.38;22.17;;;;;;;;;;6216261;23;20161;-86
2022/02/23 01:44:05;;;;;;;21.92;20.60;;;;;;;;;;6215740;23;20168;-86
2022/02/23 01:46:34;;;;;;;25.20;22.60;;;;;;;;;;6216092;23;20184;-86
2022/02/23 01:49:01;;;;;;;23.73;21.88;;;;;;;;;;6216054;23;20268;-86
2022/02/23 01:51:28;;;;;;;30.08;21.90;;;;;;;;;;6215803;23;20173;-86
2022/02/23 01:53:56;;;;;;;24.50;22.38;;;;;;;;;;6215874;23;20665;-86
2022/02/23 01:56:23;;;;;;;24.00;21.60;;;;;;;;;;6215914;23;20608;-86
2022/02/23 01:58:50;;;;;;;26.05;21.73;;;;;;;;;;6216168;23;20180;-86
2022/02/23 02:01:18;;;;;;;24.30;21.90;;;;;;;;;;6215486;23;20603;-86
2022/02/23 02:03:47;;;;;;;24.08;20.98;;;;;;;;;;6216058;23;20164;-87
2022/02/23 02:06:14;;;;;;;21.23;19.67;;;;;;;;;;6216142;23;20252;-87
2022/02/23 02:08:41;;;;;;;22.02;20.27;;;;;;;;;;6216097;23;20168;-86
2022/02/23 02:11:09;;;;;;;22.23;20.52;;;;;;;;;;6215984;23;20165;-86
2022/02/23 02:13:36;;;;;;;23.95;21.45;;;;;;;;;;6215569;23;20496;-86
2022/02/23 02:16:03;;;;;;;22.42;20.27;;;;;;;;;;6215942;23;20169;-86
2022/02/23 02:18:31;;;;;;;22.17;20.15;;;;;;;;;;6216524;23;20176;-86
2022/02/23 02:20:59;;;;;;;21.52;19.83;;;;;;;;;;6217607;23;20543;-87
2022/02/23 02:23:28;;;;;;;23.35;21.17;;;;;;;;;;6217435;23;20216;-85
2022/02/23 02:25:55;;;;;;;22.52;20.58;;;;;;;;;;6217865;23;20171;-87
2022/02/23 02:28:23;;;;;;;22.52;20.58;;;;;;;;;;6218445;23;20161;-87
2022/02/23 02:30:50;;;;;;;22.23;20.27;;;;;;;;;;6217995;23;20520;-86
2022/02/23 02:33:17;;;;;;;23.45;21.38;;;;;;;;;;6218356;23;20483;-86
2022/02/23 02:35:45;;;;;;;26.50;21.60;;;;;;;;;;6217970;23;20171;-86
2022/02/23 02:38:12;;;;;;;21.92;20.00;;;;;;;;;;6217890;23;20173;-86
2022/02/23 02:40:41;;;;;;;23.50;21.23;;;;;;;;;;6217615;23;20243;-86
2022/02/23 02:43:10;;;;;;;22.70;20.50;;;;;;;;;;6217329;23;20199;-86
2022/02/23 02:45:37;;;;;;;29.45;23.13;;;;;;;;;;6216997;23;20175;-86
2022/02/23 02:48:05;;;;;;;28.67;21.75;;;;;;;;;;6217345;23;20662;-86
2022/02/23 02:50:33;;;;;;;29.08;21.88;;;;;;;;;;6217797;23;20457;-85
2022/02/23 02:53:00;;;;;;;24.10;21.95;;;;;;;;;;6217736;23;20173;-86
2022/02/23 02:55:27;;;;;;;25.58;20.00;;;;;;;;;;6217455;23;20504;-86
2022/02/23 02:57:56;;;;;;;20.77;19.23;;;;;;;;;;6217272;23;20197;-86
2022/02/23 03:00:24;;;;;;;22.35;20.67;;;;;;;;;;6217902;23;20480;-86
2022/02/23 03:02:51;;;;;;;23.80;21.20;;;;;;;;;;6217984;23;20165;-87
2022/02/23 03:05:19;;;;;;;22.10;19.98;;;;;;;;;;6217346;23;20173;-87
2022/02/23 03:07:46;;;;;;;22.00;20.23;;;;;;;;;;6217365;23;20172;-86
2022/02/23 03:10:13;;;;;;;26.48;20.85;;;;;;;;;;6217597;23;20169;-85
2022/02/23 03:12:41;;;;;;;21.83;20.05;;;;;;;;;;6217841;23;20172;-86
2022/02/23 03:15:10;;;;;;;24.05;21.67;;;;;;;;;;6217422;23;20200;-87
2022/02/23 03:17:37;;;;;;;21.35;19.58;;;;;;;;;;6217205;23;20168;-87
2022/02/23 03:20:05;;;;;;;21.92;19.85;;;;;;;;;;6217591;23;20227;-87
2022/02/23 03:22:32;;;;;;;22.95;20.73;;;;;;;;;;6217042;23;20175;-85
2022/02/23 03:25:00;;;;;;;21.45;19.48;;;;;;;;;;6216681;23;20179;-87
2022/02/23 03:27:27;;;;;;;22.67;20.55;;;;;;;;;;6217073;23;20173;-87
2022/02/23 03:29:54;;;;;;;21.35;19.25;;;;;;;;;;6216507;23;20177;-86
2022/02/23 03:32:23;;;;;;;26.27;20.95;;;;;;;;;;6216747;23;20179;-86
2022/02/23 03:34:51;;;;;;;23.33;20.83;;;;;;;;;;6216756;23;20201;-87
2022/02/23 03:37:18;;;;;;;22.20;20.55;;;;;;;;;;6216959;23;20173;-87
2022/02/23 03:39:45;;;;;;;22.70;20.65;;;;;;;;;;6217778;23;20165;-86
2022/02/23 03:42:13;;;;;;;24.70;20.05;;;;;;;;;;6216945;23;20169;-86
2022/02/23 03:44:40;;;;;;;23.55;20.05;;;;;;;;;;6216516;23;20169;-87
2022/02/23 03:47:08;;;;;;;24.00;21.60;;;;;;;;;;6190785;23;20179;-87
2022/02/23 03:49:37;;;;;;;22.08;19.73;;;;;;;;;;6216873;23;20193;-86
2022/02/23 03:52:05;;;;;;;23.35;20.70;;;;;;;;;;6216787;23;20183;-87
2022/02/23 03:54:32;;;;;;;20.45;18.73;;;;;;;;;;6216727;23;20196;-86
2022/02/23 03:57:00;;;;;;;21.20;19.33;;;;;;;;;;6216869;23;20172;-86
2022/02/23 03:59:27;;;;;;;22.20;19.83;;;;;;;;;;6216872;23;20204;-87
2022/02/23 04:01:55;;;;;;;22.50;20.35;;;;;;;;;;6216835;23;20234;-86
2022/02/23 04:04:23;;;;;;;27.13;24.52;;;;;;;;;;6216979;23;20200;-86
2022/02/23 04:06:52;;;;;;;22.05;20.13;;;;;;;;;;6217343;23;20161;-86
2022/02/23 04:09:19;;;;;;;25.90;21.10;;;;;;;;;;6216826;23;20599;-86
2022/02/23 04:11:46;;;;;;;23.23;21.20;;;;;;;;;;6216745;23;20169;-85
2022/02/23 04:14:15;;;;;;;25.65;23.02;;;;;;;;;;6216083;23;20199;-86
2022/02/23 04:16:42;;;;;;;21.75;19.88;;;;;;;;;;6216847;23;20161;-86
2022/02/23 04:19:09;;;;;;;33.08;21.98;;;;;;;;;;6216788;23;20176;-87
2022/02/23 04:21:37;;;;;;;22.38;20.27;;;;;;;;;;6217026;23;20203;-86
2022/02/23 04:24:06;;;;;;;22.55;20.55;;;;;;;;;;6216301;23;20208;-87
2022/02/23 04:26:35;;;;;;;24.05;21.90;;;;;;;;;;6216710;23;20173;-87
2022/02/23 04:29:02;;;;;;;23.95;21.75;;;;;;;;;;6217195;23;20612;-87
2022/02/23 04:31:31;;;;;;;23.17;21.25;;;;;;;;;;6216548;23;20223;-86
2022/02/23 04:33:59;;;;;;;24.05;21.65;;;;;;;;;;6216050;23;20638;-87
2022/02/23 04:36:27;;;;;;;24.77;22.55;;;;;;;;;;6216596;23;20165;-86
2022/02/23 04:38:54;;;;;;;23.77;21.42;;;;;;;;;;6216331;23;20173;-86
2022/02/23 04:41:23;;;;;;;24.45;22.23;;;;;;;;;;6216410;23;20169;-87
2022/02/23 04:43:50;;;;;;;27.45;21.35;;;;;;;;;;6216179;23;20542;-87
2022/02/23 04:46:18;;;;;;;35.20;25.05;;;;;;;;;;6216575;23;20219;-87
2022/02/23 04:48:46;;;;;;;25.38;21.50;;;;;;;;;;6216562;23;20197;-87
2022/02/23 04:51:13;;;;;;;23.02;21.02;;;;;;;;;;6216442;23;20169;-86
2022/02/23 04:53:41;;;;;;;24.30;22.27;;;;;;;;;;6216622;23;20181;-87
2022/02/23 04:56:08;;;;;;;27.92;22.45;;;;;;;;;;6216522;23;20211;-86
2022/02/23 04:58:37;;;;;;;25.25;22.83;;;;;;;;;;6216584;23;20172;-86
2022/02/23 05:01:05;;;;;;;23.17;21.10;;;;;;;;;;6216085;23;20187;-87
2022/02/23 05:03:32;;;;;;;25.23;21.85;;;;;;;;;;6215745;23;20492;-86
2022/02/23 05:06:00;;;;;;;24.65;22.75;;;;;;;;;;6215899;23;20528;-87
2022/02/23 05:08:27;;;;;;;28.40;25.90;;;;;;;;;;6215690;23;20171;-87
2022/02/23 05:10:57;;;;;;;24.27;22.42;;;;;;;;;;6215888;23;20195;-86
2022/02/23 05:13:26;;;;;;;24.02;22.00;;;;;;;;;;6216372;23;20165;-86
2022/02/23 05:15:56;;;;;;;25.48;21.10;;;;;;;;;;6216859;23;20193;-87
2022/02/23 05:18:24;;;;;;;24.63;22.42;;;;;;;;;;6216833;23;20227;-87
2022/02/23 05:20:51;;;;;;;28.20;22.55;;;;;;;;;;6216162;23;20173;-86
2022/02/23 05:23:18;;;;;;;26.25;23.65;;;;;;;;;;6216267;23;20665;-86
2022/02/23 05:25:46;;;;;;;24.88;22.45;;;;;;;;;;6189800;23;20246;-86
2022/02/23 05:28:13;;;;;;;25.70;23.45;;;;;;;;;;6216038;23;20173;-87
2022/02/23 05:30:41;;;;;;;24.55;22.58;;;;;;;;;;6216122;23;20173;-87
2022/02/23 05:33:09;;;;;;;29.10;23.63;;;;;;;;;;6216053;23;20168;-86
2022/02/23 05:35:37;;;;;;;24.83;22.63;;;;;;;;;;6216258;23;20189;-86
2022/02/23 05:38:04;;;;;;;26.80;22.05;;;;;;;;;;6216073;23;20499;-86
2022/02/23 05:40:32;;;;;;;24.73;22.48;;;;;;;;;;6216563;23;20172;-86
2022/02/23 05:42:59;;;;;;;24.42;21.83;;;;;;;;;;6216307;23;20623;-86
2022/02/23 05:45:26;;;;;;;24.92;22.55;;;;;;;;;;6216170;23;20169;-87
2022/02/23 05:47:54;;;;;;;24.55;22.23;;;;;;;;;;6189226;23;20270;-87
2022/02/23 05:50:23;;;;;;;26.25;23.67;;;;;;;;;;6216639;23;20177;-86
2022/02/23 05:52:50;;;;;;;25.15;23.15;;;;;;;;;;6215862;23;20176;-86
2022/02/23 05:55:17;;;;;;;23.15;21.23;;;;;;;;;;6218141;23;20185;-86
2022/02/23 05:57:45;;;;;;;24.02;22.23;;;;;;;;;;6191784;23;20177;-87
2022/02/23 06:00:12;;;;;;;24.50;22.20;;;;;;;;;;6218056;23;20173;-85
2022/02/23 06:02:40;;;;;;;28.60;23.98;;;;;;;;;;6217866;23;20172;-86
2022/02/23 06:05:08;;;;;;;24.90;22.25;;;;;;;;;;6217849;23;20227;-87
2022/02/23 06:07:36;;;;;;;26.95;24.13;;;;;;;;;;6218294;23;20220;-86
2022/02/23 06:10:05;;;;;;;26.40;23.75;;;;;;;;;;6217922;23;20176;-86
2022/02/23 06:12:32;;;;;;;25.58;23.55;;;;;;;;;;6217764;23;20169;-87
2022/02/23 06:15:00;;;;;;;24.88;22.85;;;;;;;;;;6217683;23;20235;-86
2022/02/23 06:17:28;;;;;;;27.70;22.52;;;;;;;;;;6217914;23;20219;-87
2022/02/23 06:19:56;;;;;;;26.83;24.10;;;;;;;;;;6217285;23;20173;-87
2022/02/23 06:22:24;;;;;;;26.05;24.00;;;;;;;;;;6218278;23;20526;-86
2022/02/23 06:24:52;;;;;;;27.27;24.60;;;;;;;;;;6217680;23;20180;-86
2022/02/23 06:27:20;;;;;;;26.35;24.20;;;;;;;;;;6217801;23;20603;-86
2022/02/23 06:29:47;;;;;;;26.80;24.70;;;;;;;;;;6218280;23;20195;-86
2022/02/23 06:32:14;;;;;;;26.73;24.13;;;;;;;;;;6192289;23;20491;-86
2022/02/23 06:34:42;;;;;;;25.60;23.15;;;;;;;;;;6217622;23;20181;-87
2022/02/23 06:37:09;;;;;;;26.45;23.83;;;;;;;;;;6217788;23;20616;-87
2022/02/23 06:39:39;;;;;;;26.98;23.70;;;;;;;;;;6217125;23;20173;-87
2022/02/23 06:42:08;;;;;;;25.35;22.95;;;;;;;;;;6217480;23;20184;-86
2022/02/23 06:44:36;;;;;;;25.08;23.08;;;;;;;;;;6217193;23;20172;-86
2022/02/23 06:47:03;;;;;;;27.45;24.60;;;;;;;;;;6216790;23;20168;-86
2022/02/23 06:49:31;;;;;;;25.00;22.80;;;;;;;;;;6217907;23;20197;-86
2022/02/23 06:52:00;;;;;;;25.85;23.58;;;;;;;;;;6217648;23;20171;-86
2022/02/23 06:54:28;;;;;;;27.08;24.48;;;;;;;;;;6218060;23;20192;-86
2022/02/23 06:56:55;;;;;;;28.27;24.92;;;;;;;;;;6217484;23;20203;-86
2022/02/23 06:59:24;;;;;;;30.75;25.48;;;;;;;;;;6217486;23;20197;-85
2022/02/23 07:01:51;;;;;;;32.00;25.05;;;;;;;;;;6217481;23;20168;-86
2022/02/23 07:04:19;;;;;;;27.70;25.00;;;;;;;;;;6217406;23;20161;-85
2022/02/23 07:06:46;;;;;;;28.10;25.13;;;;;;;;;;6217692;23;20169;-86
2022/02/23 07:09:13;;;;;;;29.58;27.05;;;;;;;;;;6217027;23;20164;-86
2022/02/23 07:11:41;;;;;;;28.60;25.80;;;;;;;;;;6217329;23;20615;-86
2022/02/23 07:14:09;;;;;;;29.25;25.77;;;;;;;;;;6217198;23;20169;-86
2022/02/23 07:16:38;;;;;;;27.35;24.95;;;;;;;;;;6216617;23;20280;-86
2022/02/23 07:19:06;;;;;;;28.80;26.02;;;;;;;;;;6191125;23;20177;-86
2022/02/23 07:21:34;;;;;;;26.73;24.23;;;;;;;;;;6217013;23;20211;-86
2022/02/23 07:24:02;;;;;;;27.25;24.67;;;;;;;;;;6216142;23;20200;-84
2022/02/23 07:26:29;;;;;;;25.77;23.67;;;;;;;;;;6216761;23;20630;-84
2022/02/23 07:28:57;;;;;;;26.45;24.10;;;;;;;;;;6216769;23;20176;-83
2022/02/23 07:31:25;;;;;;;27.65;24.85;;;;;;;;;;6216110;23;20172;-84
2022/02/23 07:33:54;;;;;;;29.38;26.45;;;;;;;;;;6216653;23;20200;-83
2022/02/23 07:36:22;;;;;;;28.10;25.30;;;;;;;;;;6216899;23;20259;-83
2022/02/23 07:38:51;;;;;;;26.80;23.83;;;;;;;;;;6216371;23;20172;-84
2022/02/23 07:41:22;;;;;;;26.10;23.60;;;;;;;;;;6216935;23;20161;-84
2022/02/23 07:43:50;;;;;;;25.95;23.73;;;;;;;;;;6215888;23;20634;-85
2022/02/23 07:46:17;;;;;;;26.20;23.83;;;;;;;;;;6217001;23;20165;-83
2022/02/23 07:48:46;;;;;;;28.65;25.73;;;;;;;;;;6216165;23;20189;-84
2022/02/23 07:51:17;;;;;;;27.00;24.40;;;;;;;;;;6216170;23;20173;-83
2022/02/23 07:53:44;;;;;;;25.13;22.80;;;;;;;;;;6216027;23;20165;-83
2022/02/23 07:56:12;;;;;;;26.05;23.67;;;;;;;;;;6216637;23;20275;-83
2022/02/23 07:58:39;;;;;;;26.20;24.30;;;;;;;;;;6216439;23;20165;-84
2022/02/23 08:01:07;;;;;;;25.92;23.55;;;;;;;;;;6216353;23;20366;-84
2022/02/23 08:03:36;;;;;;;26.45;23.75;;;;;;;;;;6216373;23;20694;-84
2022/02/23 08:06:04;;;;;;;25.65;23.33;;;;;;;;;;6216302;23;20211;-84
2022/02/23 08:08:33;;;;;;;29.10;24.98;;;;;;;;;;6216557;23;20169;-83
2022/02/23 08:11:00;;;;;;;25.27;22.73;;;;;;;;;;6216156;23;20172;-84
2022/02/23 08:13:27;;;;;;;25.33;23.02;;;;;;;;;;6215863;23;20185;-84
2022/02/23 08:21:24;;;;;;;32.78;21.60;;;;;;;;;;6216848;23;20172;-82
2022/02/23 08:23:53;;;;;;;23.95;21.55;;;;;;;;;;6216021;23;20200;-83
2022/02/23 08:26:20;;;;;;;23.98;21.50;;;;;;;;;;6215928;23;20173;-84
2022/02/23 08:28:48;;;;;;;26.73;21.60;;;;;;;;;;6215772;23;20161;-83
2022/02/23 08:31:15;;;;;;;22.52;20.10;;;;;;;;;;6216068;23;20231;-84
2022/02/23 08:33:43;;;;;;;20.17;18.83;;;;;;;;;;6216741;23;20527;-83
2022/02/23 08:36:11;;;;;;;18.50;17.45;;;;;;;;;;6216180;23;20960;-84
2022/02/23 08:38:41;;;;;;;20.80;18.65;;;;;;;;;;6189619;23;20181;-89
2022/02/23 08:41:11;;;;;;;20.20;18.67;;;;;;;;;;6217589;23;20669;-86
2022/02/23 08:43:38;;;;;;;21.80;19.63;;;;;;;;;;6190699;23;20175;-86
2022/02/23 08:46:07;;;;;;;30.10;21.27;;;;;;;;;;6189823;23;20235;-86
2022/02/23 08:48:35;;;;;;;21.13;19.33;;;;;;;;;;6216048;23;20192;-86
2022/02/23 08:51:02;;;;;;;20.10;18.50;;;;;;;;;;6216063;23;20176;-86
2022/02/23 08:53:29;;;;;;;19.17;17.75;;;;;;;;;;6216264;23;20173;-93
2022/02/23 08:55:57;;;;;;;20.70;19.05;;;;;;;;;;6217980;23;20227;-86
2022/02/23 08:58:26;;;;;;;21.08;18.73;;;;;;;;;;6216780;23;20173;-86
2022/02/23 09:00:53;;;;;;;18.85;17.30;;;;;;;;;;6216657;23;20191;-87
2022/02/23 09:03:22;;;;;;;25.30;19.27;;;;;;;;;;6216117;23;20160;-87
2022/02/23 09:05:50;;;;;;;20.70;18.80;;;;;;;;;;6216043;23;20168;-88
2022/02/23 09:08:17;;;;;;;21.17;19.30;;;;;;;;;;6217195;23;20164;-91
2022/02/23 09:10:44;;;;;;;19.83;18.02;;;;;;;;;;6217387;23;20168;-91
2022/02/23 09:13:12;;;;;;;24.45;19.60;;;;;;;;;;6217666;23;20165;-90
2022/02/23 09:15:41;;;;;;;21.27;19.42;;;;;;;;;;6216396;23;20197;-90
2022/02/23 09:18:08;;;;;;;21.55;19.48;;;;;;;;;;6190070;23;20180;-90
2022/02/23 09:20:35;;;;;;;20.60;18.67;;;;;;;;;;6216804;23;20160;-90
2022/02/23 09:23:03;;;;;;;22.05;19.70;;;;;;;;;;6216592;23;20227;-91
2022/02/23 09:25:30;;;;;;;23.63;20.75;;;;;;;;;;6216872;23;20172;-90
2022/02/23 09:27:58;;;;;;;21.65;19.50;;;;;;;;;;6216436;23;20169;-90
2022/02/23 09:30:25;;;;;;;23.92;18.75;;;;;;;;;;6216028;23;20215;-90
2022/02/23 09:32:54;;;;;;;20.30;18.40;;;;;;;;;;6215991;23;20172;-90
2022/02/23 09:35:22;;;;;;;19.10;17.60;;;;;;;;;;6216520;23;20161;-89
2022/02/23 09:37:50;;;;;;;22.35;20.55;;;;;;;;;;6216834;23;20556;-90
2022/02/23 09:40:17;;;;;;;21.52;19.70;;;;;;;;;;6216752;23;20196;-91
2022/02/23 09:42:45;;;;;;;19.60;17.85;;;;;;;;;;6216570;23;20165;-91
2022/02/23 09:45:13;;;;;;;20.35;18.77;;;;;;;;;;6217032;23;20168;-90
2022/02/23 09:47:40;;;;;;;20.13;18.02;;;;;;;;;;6216623;23;20196;-89
2022/02/23 09:50:11;;;;;;;21.92;19.48;;;;;;;;;;6216742;23;20680;-91
2022/02/23 09:52:38;;;;;;;20.42;18.55;;;;;;;;;;6190374;23;20185;-85
2022/02/23 09:55:08;;;;;;;19.60;17.80;;;;;;;;;;6216879;23;20173;-88
2022/02/23 09:57:35;;;;;;;20.30;18.15;;;;;;;;;;6216606;23;20192;-88
2022/02/23 10:00:05;;;;;;;20.50;18.58;;;;;;;;;;6216150;23;20161;-87
2022/02/23 10:02:35;;;;;;;20.05;18.27;;;;;;;;;;6215709;23;20173;-88
2022/02/23 10:05:03;;;;;;;22.40;20.27;;;;;;;;;;6216038;23;20255;-86
2022/02/23 10:07:32;;;;;;;20.13;18.73;;;;;;;;;;6216086;23;20243;-87
2022/02/23 10:10:03;;;;;;;22.05;20.10;;;;;;;;;;6177445;23;20179;-86
2022/02/23 10:12:30;;;;;;;21.25;19.40;;;;;;;;;;6215044;23;20173;-86
2022/02/23 10:15:08;;;;;;;20.08;18.40;;;;;;;;;;6216289;23;20171;-86
2022/02/23 10:17:37;;;;;;;20.67;19.02;;;;;;;;;;6216834;23;20189;-86
2022/02/23 10:20:05;;;;;;;21.10;19.15;;;;;;;;;;6189282;23;20179;-87
2022/02/23 10:22:34;;;;;;;20.70;18.65;;;;;;;;;;6216153;23;20172;-87
2022/02/23 10:25:01;;;;;;;20.80;19.15;;;;;;;;;;6190263;23;20165;-92
2022/02/23 10:27:38;;;;;;;19.00;17.80;;;;;;;;;;6189574;23;20191;-88
2022/02/23 10:30:07;;;;;;;20.80;18.92;;;;;;;;;;6216343;23;20668;-87
2022/02/23 10:32:34;;;;;;;19.05;17.45;;;;;;;;;;6216688;23;20172;-90
2022/02/23 10:35:04;;;;;;;21.98;19.75;;;;;;;;;;6190685;23;20172;-87
2022/02/23 10:37:31;;;;;;;20.30;18.38;;;;;;;;;;6216819;23;20225;-88
2022/02/23 10:40:02;;;;;;;19.75;18.45;;;;;;;;;;6217871;23;20211;-86
2022/02/23 10:42:30;;;;;;;20.00;18.50;;;;;;;;;;6218564;23;20197;-87
2022/02/23 10:44:58;;;;;;;19.95;18.50;;;;;;;;;;6218791;23;20391;-88
2022/02/23 10:47:29;;;;;;;21.17;19.30;;;;;;;;;;6191545;23;20204;-88
2022/02/23 10:50:01;;;;;;;20.08;18.80;;;;;;;;;;6217797;23;20169;-88
2022/02/23 10:52:30;;;;;;;20.42;18.92;;;;;;;;;;6218494;23;20162;-87
2022/02/23 10:55:14;;;;;;;20.55;19.00;;;;;;;;;;6220921;23;20173;-88
2022/02/23 10:57:45;;;;;;;22.02;20.00;;;;;;;;;;6218946;23;20204;-88
2022/02/23 11:00:16;;;;;;;20.30;18.80;;;;;;;;;;6218516;23;20184;-88
2022/02/23 11:02:43;;;;;;;21.63;20.20;;;;;;;;;;6218081;23;20176;-88
2022/02/23 11:05:11;;;;;;;19.65;18.17;;;;;;;;;;6218212;23;20167;-87
2022/02/23 11:07:42;;;;;;;20.87;19.37;;;;;;;;;;6218102;23;20177;-87
2022/02/23 11:10:13;;;;;;;21.52;20.15;;;;;;;;;;6218122;23;20394;-88
2022/02/23 11:12:41;;;;;;;21.27;19.05;;;;;;;;;;6217243;23;20168;-89
2022/02/23 11:15:11;;;;;;;20.95;19.25;;;;;;;;;;6218170;23;20165;-89
2022/02/23 11:17:40;;;;;;;21.55;19.65;;;;;;;;;;6218008;23;20197;-89
2022/02/23 11:20:08;;;;;;;21.02;19.20;;;;;;;;;;6217887;23;20508;-89
2022/02/23 11:22:35;;;;;;;21.92;20.23;;;;;;;;;;6190790;23;20180;-90
2022/02/23 11:25:03;;;;;;;23.70;21.20;;;;;;;;;;6218300;23;20161;-89
2022/02/23 11:27:32;;;;;;;21.50;19.80;;;;;;;;;;6219626;23;20451;-93
2022/02/23 11:30:05;;;;;;;21.50;19.83;;;;;;;;;;6217650;23;20203;-92
2022/02/23 11:32:34;;;;;;;20.75;19.15;;;;;;;;;;6217758;23;20479;-91
2022/02/23 11:35:01;;;;;;;20.87;19.33;;;;;;;;;;6217265;23;20210;-85
2022/02/23 11:37:33;;;;;;;21.83;20.20;;;;;;;;;;6216985;23;20414;-85
2022/02/23 11:40:00;;;;;;;23.63;21.10;;;;;;;;;;6191594;23;20404;-86
2022/02/23 11:42:28;;;;;;;21.03;19.43;;;;;;;;;;6217274;23;20487;-87
2022/02/23 11:45:06;;;;;;;21.00;19.80;;;;;;;;;;6216647;23;20419;-85
2022/02/23 11:47:35;;;;;;;21.30;19.87;;;;;;;;;;6216702;23;20405;-85
2022/02/23 11:50:05;;;;;;;21.02;19.38;;;;;;;;;;6216678;23;20392;-84
2022/02/23 11:52:33;;;;;;;21.30;19.75;;;;;;;;;;6216985;23;20484;-88
2022/02/23 11:55:03;;;;;;;21.30;19.90;;;;;;;;;;6219218;23;20173;-95
2022/02/23 11:57:43;;;;;;;22.80;21.30;;;;;;;;;;6230645;23;20268;-96
2022/02/23 12:00:21;;;;;;;22.23;20.27;;;;;;;;;;6233552;23;20165;-96
2022/02/23 12:03:02;;;;;;;21.90;20.02;;;;;;;;;;6199260;23;20191;-89
2022/02/23 12:05:37;;;;;;;21.53;19.93;;;;;;;;;;6222405;23;20169;-84
2022/02/23 12:08:04;;;;;;;21.77;20.10;;;;;;;;;;6221797;23;20404;-84
2022/02/23 12:10:33;;;;;;;22.43;20.53;;;;;;;;;;6221855;23;20416;-83
2022/02/23 12:13:00;;;;;;;22.58;20.60;;;;;;;;;;6217870;23;20428;-84
2022/02/23 12:15:33;;;;;;;22.88;20.83;;;;;;;;;;6216249;23;20168;-84
2022/02/23 12:18:02;;;;;;;23.17;21.23;;;;;;;;;;6216459;23;20192;-84
2022/02/23 12:20:48;;;;;;;22.50;20.77;;;;;;;;;;6216114;23;20447;-84
2022/02/23 12:23:32;;;;;;;23.40;21.63;;;;;;;;;;6189234;23;20205;-84
2022/02/23 12:26:00;;;;;;;20.92;19.35;;;;;;;;;;6215979;23;20403;-84
2022/02/23 12:28:29;;;;;;;21.98;20.58;;;;;;;;;;6216589;23;20165;-84
2022/02/23 12:30:58;;;;;;;22.88;21.05;;;;;;;;;;6216074;23;20638;-85
2022/02/23 12:33:27;;;;;;;22.70;20.93;;;;;;;;;;6215915;23;20165;-84
2022/02/23 12:35:55;;;;;;;22.90;21.20;;;;;;;;;;6216449;23;20462;-84
2022/02/23 12:38:24;;;;;;;22.13;20.60;;;;;;;;;;6216045;23;20418;-84
2022/02/23 12:40:52;;;;;;;24.23;21.97;;;;;;;;;;6216315;23;20915;-82
2022/02/23 12:43:20;;;;;;;22.67;21.00;;;;;;;;;;6215994;23;20450;-84
2022/02/23 12:45:48;;;;;;;23.20;21.60;;;;;;;;;;6215245;23;20394;-84
2022/02/23 12:48:16;;;;;;;22.60;21.10;;;;;;;;;;6215582;23;20430;-83
2022/02/23 12:50:45;;;;;;;23.73;21.60;;;;;;;;;;6215559;23;20408;-84
2022/02/23 12:53:13;;;;;;;22.23;20.67;;;;;;;;;;6189184;23;20457;-84
2022/02/23 12:55:41;;;;;;;22.57;21.37;;;;;;;;;;6216033;23;20529;-84
2022/02/23 12:58:08;;;;;;;23.50;21.90;;;;;;;;;;6189713;23;20417;-85
2022/02/23 13:00:36;;;;;;;22.70;21.17;;;;;;;;;;6215568;23;20378;-84
2022/02/23 13:03:10;;;;;;;23.17;21.10;;;;;;;;;;6215313;23;20172;-84
2022/02/23 13:05:38;;;;;;;22.80;21.00;;;;;;;;;;6215502;23;20486;-85
2022/02/23 13:08:09;;;;;;;23.37;21.67;;;;;;;;;;6216206;23;20400;-84
2022/02/23 13:10:36;;;;;;;22.07;20.40;;;;;;;;;;6216256;23;20378;-83
2022/02/23 13:13:04;;;;;;;22.40;21.00;;;;;;;;;;6215611;23;20382;-84
2022/02/23 13:15:31;;;;;;;21.53;20.13;;;;;;;;;;6215417;23;20392;-85
2022/02/23 13:18:07;;;;;;;22.40;20.87;;;;;;;;;;6215655;23;20422;-84
2022/02/23 13:20:35;;;;;;;22.87;21.10;;;;;;;;;;6215427;23;20367;-85
2022/02/23 13:23:02;;;;;;;24.25;22.60;;;;;;;;;;6215618;23;20440;-85
2022/02/23 13:25:31;;;;;;;22.27;20.87;;;;;;;;;;6215614;23;20251;-85
2022/02/23 13:28:05;;;;;;;23.30;21.50;;;;;;;;;;6215879;23;20449;-84
2022/02/23 13:30:32;;;;;;;22.70;21.13;;;;;;;;;;6216223;23;20400;-84
2022/02/23 13:33:00;;;;;;;22.52;20.92;;;;;;;;;;6215800;23;20977;-84
2022/02/23 13:35:28;;;;;;;21.87;20.30;;;;;;;;;;6216522;23;20169;-85
2022/02/23 13:38:06;;;;;;;22.77;20.87;;;;;;;;;;6215558;23;20430;-84
2022/02/23 13:40:36;;;;;;;22.57;21.07;;;;;;;;;;6215155;23;20399;-86
2022/02/23 13:43:06;;;;;;;23.10;21.60;;;;;;;;;;6215602;23;20370;-85
2022/02/23 13:45:36;;;;;;;22.50;21.20;;;;;;;;;;6215163;23;20402;-84
2022/02/23 13:48:08;;;;;;;24.43;22.50;;;;;;;;;;6215051;23;20439;-91
2022/02/23 13:50:36;;;;;;;22.77;21.13;;;;;;;;;;6215280;23;20747;-85
2022/02/23 13:53:05;;;;;;;23.63;22.03;;;;;;;;;;6215460;23;20371;-85
2022/02/23 13:55:33;;;;;;;22.67;21.10;;;;;;;;;;6215807;23;20411;-85
2022/02/23 13:58:02;;;;;;;23.10;21.43;;;;;;;;;;6215903;23;20430;-85
2022/02/23 14:00:31;;;;;;;25.43;22.70;;;;;;;;;;6215201;23;20374;-85
2022/02/23 14:03:06;;;;;;;23.33;21.30;;;;;;;;;;6189072;23;20433;-84
2022/02/23 14:05:34;;;;;;;23.57;21.50;;;;;;;;;;6215564;23;20374;-85
2022/02/23 14:08:03;;;;;;;22.90;21.20;;;;;;;;;;6214948;23;20387;-86
2022/02/23 14:10:31;;;;;;;24.43;22.30;;;;;;;;;;6215409;23;20379;-85
2022/02/23 14:13:03;;;;;;;24.90;23.10;;;;;;;;;;6189736;23;20404;-86
2022/02/23 14:15:31;;;;;;;24.30;22.30;;;;;;;;;;6216589;23;20398;-85
2022/02/23 14:17:59;;;;;;;23.60;21.87;;;;;;;;;;6218177;23;20440;-90
2022/02/23 14:20:29;;;;;;;24.23;22.50;;;;;;;;;;6191592;23;20411;-86
2022/02/23 14:23:01;;;;;;;23.20;21.50;;;;;;;;;;6217698;23;20410;-86
2022/02/23 14:25:28;;;;;;;25.03;23.33;;;;;;;;;;6218216;23;20396;-87
2022/02/23 14:27:56;;;;;;;26.33;23.97;;;;;;;;;;6217624;23;20384;-94